sensor_id;sensor_type;location;lat;lon;timestamp;P1;durP1;ratioP1;P2;durP2;ratioP2
54037;SDS011;39954;48.844;9.726;2023-07-20T00:00:59;6.75;;;1.75;;
54037;SDS011;39954;48.844;9.726;2023-07-20T00:02:02;5.88;;;1.77;;
54037;SDS011;39954;48.844;9.726;2023-07-20T00:03:10;3.15;;;1.65;;
54037;SDS011;39954;48.844;9.726;2023-07-20T00:04:21;8.20;;;1.90;;
54037;SDS011;39954;48.844;9.726;2023-07-20T00:05:27;3.13;;;1.70;;
54037;SDS011;39954;48.844;9.726;2023-07-20T00:06:30;4.60;;;1.83;;
54037;SDS011;39954;48.844;9.726;2023-07-20T00:07:35;7.10;;;1.80;;
54037;SDS011;39954;48.844;9.726;2023-07-20T00:08:39;4.97;;;2.10;;
54037;SDS011;39954;48.844;9.726;2023-07-20T00:09:44;7.75;;;1.67;;
54037;SDS011;39954;48.844;9.726;2023-07-20T00:10:47;2.97;;;1.85;;
54037;SDS011;39954;48.844;9.726;2023-07-20T00:11:53;3.38;;;1.83;;
54037;SDS011;39954;48.844;9.726;2023-07-20T00:12:56;8.02;;;1.95;;
54037;SDS011;39954;48.844;9.726;2023-07-20T00:14:01;3.47;;;1.70;;
54037;SDS011;39954;48.844;9.726;2023-07-20T00:15:05;4.07;;;1.60;;
54037;SDS011;39954;48.844;9.726;2023-07-20T00:16:11;9.07;;;1.90;;
54037;SDS011;39954;48.844;9.726;2023-07-20T00:17:14;3.80;;;1.80;;
54037;SDS011;39954;48.844;9.726;2023-07-20T00:18:20;6.85;;;1.92;;
54037;SDS011;39954;48.844;9.726;2023-07-20T00:19:26;4.10;;;1.92;;
54037;SDS011;39954;48.844;9.726;2023-07-20T00:20:34;4.20;;;1.70;;
54037;SDS011;39954;48.844;9.726;2023-07-20T00:21:37;3.17;;;1.88;;
54037;SDS011;39954;48.844;9.726;2023-07-20T00:22:44;3.08;;;2.10;;
54037;SDS011;39954;48.844;9.726;2023-07-20T00:23:47;8.32;;;1.80;;
54037;SDS011;39954;48.844;9.726;2023-07-20T00:24:53;4.90;;;1.90;;
54037;SDS011;39954;48.844;9.726;2023-07-20T00:25:59;4.43;;;2.10;;
54037;SDS011;39954;48.844;9.726;2023-07-20T00:27:04;5.88;;;1.95;;
54037;SDS011;39954;48.844;9.726;2023-07-20T00:28:07;2.97;;;1.80;;
54037;SDS011;39954;48.844;9.726;2023-07-20T00:29:13;5.57;;;2.03;;
54037;SDS011;39954;48.844;9.726;2023-07-20T00:30:16;3.53;;;1.77;;
54037;SDS011;39954;48.844;9.726;2023-07-20T00:31:36;6.20;;;1.83;;
54037;SDS011;39954;48.844;9.726;2023-07-20T00:32:41;4.10;;;1.90;;
54037;SDS011;39954;48.844;9.726;2023-07-20T00:33:45;3.90;;;1.90;;
54037;SDS011;39954;48.844;9.726;2023-07-20T00:34:53;4.05;;;1.70;;
54037;SDS011;39954;48.844;9.726;2023-07-20T00:35:56;4.32;;;1.90;;
54037;SDS011;39954;48.844;9.726;2023-07-20T00:36:59;4.88;;;1.80;;
54037;SDS011;39954;48.844;9.726;2023-07-20T00:38:05;7.03;;;1.92;;
54037;SDS011;39954;48.844;9.726;2023-07-20T00:39:08;4.90;;;2.17;;
54037;SDS011;39954;48.844;9.726;2023-07-20T00:40:11;5.43;;;2.33;;
54037;SDS011;39954;48.844;9.726;2023-07-20T00:41:17;3.83;;;2.05;;
54037;SDS011;39954;48.844;9.726;2023-07-20T00:42:19;4.65;;;2.05;;
54037;SDS011;39954;48.844;9.726;2023-07-20T00:43:26;4.85;;;1.90;;
54037;SDS011;39954;48.844;9.726;2023-07-20T00:44:29;4.65;;;2.25;;
54037;SDS011;39954;48.844;9.726;2023-07-20T00:45:34;4.55;;;2.20;;
54037;SDS011;39954;48.844;9.726;2023-07-20T00:46:40;4.05;;;2.00;;
54037;SDS011;39954;48.844;9.726;2023-07-20T00:47:44;4.22;;;2.00;;
54037;SDS011;39954;48.844;9.726;2023-07-20T00:48:50;3.67;;;1.80;;
54037;SDS011;39954;48.844;9.726;2023-07-20T00:49:57;6.70;;;2.13;;
54037;SDS011;39954;48.844;9.726;2023-07-20T00:51:03;3.63;;;1.95;;
54037;SDS011;39954;48.844;9.726;2023-07-20T00:52:06;6.28;;;2.35;;
54037;SDS011;39954;48.844;9.726;2023-07-20T00:53:15;4.22;;;1.80;;
54037;SDS011;39954;48.844;9.726;2023-07-20T00:54:19;4.30;;;2.13;;
54037;SDS011;39954;48.844;9.726;2023-07-20T00:55:25;6.35;;;2.20;;
54037;SDS011;39954;48.844;9.726;2023-07-20T00:56:30;3.88;;;1.90;;
54037;SDS011;39954;48.844;9.726;2023-07-20T00:57:36;6.80;;;2.20;;
54037;SDS011;39954;48.844;9.726;2023-07-20T00:58:39;5.63;;;2.45;;
54037;SDS011;39954;48.844;9.726;2023-07-20T00:59:45;7.05;;;2.28;;
54037;SDS011;39954;48.844;9.726;2023-07-20T01:00:48;5.13;;;2.25;;
54037;SDS011;39954;48.844;9.726;2023-07-20T01:01:53;10.98;;;2.13;;
54037;SDS011;39954;48.844;9.726;2023-07-20T01:02:56;4.68;;;2.00;;
54037;SDS011;39954;48.844;9.726;2023-07-20T01:04:01;2.95;;;1.88;;
54037;SDS011;39954;48.844;9.726;2023-07-20T01:05:07;9.10;;;2.10;;
54037;SDS011;39954;48.844;9.726;2023-07-20T01:06:20;4.30;;;2.53;;
54037;SDS011;39954;48.844;9.726;2023-07-20T01:07:31;4.20;;;2.03;;
54037;SDS011;39954;48.844;9.726;2023-07-20T01:08:43;6.63;;;2.50;;
54037;SDS011;39954;48.844;9.726;2023-07-20T01:10:01;12.75;;;3.00;;
54037;SDS011;39954;48.844;9.726;2023-07-20T01:11:16;6.43;;;1.98;;
54037;SDS011;39954;48.844;9.726;2023-07-20T01:12:26;5.50;;;2.28;;
54037;SDS011;39954;48.844;9.726;2023-07-20T01:13:37;3.88;;;2.35;;
54037;SDS011;39954;48.844;9.726;2023-07-20T01:14:42;5.80;;;2.10;;
54037;SDS011;39954;48.844;9.726;2023-07-20T01:15:49;4.18;;;2.05;;
54037;SDS011;39954;48.844;9.726;2023-07-20T01:16:52;6.55;;;1.90;;
54037;SDS011;39954;48.844;9.726;2023-07-20T01:17:58;6.53;;;2.42;;
54037;SDS011;39954;48.844;9.726;2023-07-20T01:19:03;7.10;;;2.25;;
54037;SDS011;39954;48.844;9.726;2023-07-20T01:20:13;4.03;;;2.50;;
54037;SDS011;39954;48.844;9.726;2023-07-20T01:21:21;7.43;;;2.22;;
54037;SDS011;39954;48.844;9.726;2023-07-20T01:22:42;5.57;;;2.20;;
54037;SDS011;39954;48.844;9.726;2023-07-20T01:24:22;3.60;;;2.30;;
54037;SDS011;39954;48.844;9.726;2023-07-20T01:27:22;5.78;;;2.03;;
54037;SDS011;39954;48.844;9.726;2023-07-20T01:28:48;2.67;;;1.67;;
54037;SDS011;39954;48.844;9.726;2023-07-20T01:30:22;3.72;;;1.95;;
54037;SDS011;39954;48.844;9.726;2023-07-20T01:31:42;2.80;;;2.00;;
54037;SDS011;39954;48.844;9.726;2023-07-20T01:32:47;6.15;;;1.98;;
54037;SDS011;39954;48.844;9.726;2023-07-20T01:33:54;3.97;;;1.83;;
54037;SDS011;39954;48.844;9.726;2023-07-20T01:34:59;3.80;;;2.10;;
54037;SDS011;39954;48.844;9.726;2023-07-20T01:36:07;4.43;;;2.45;;
54037;SDS011;39954;48.844;9.726;2023-07-20T01:37:12;6.95;;;2.35;;
54037;SDS011;39954;48.844;9.726;2023-07-20T01:38:18;7.47;;;2.35;;
54037;SDS011;39954;48.844;9.726;2023-07-20T01:39:24;4.60;;;2.30;;
54037;SDS011;39954;48.844;9.726;2023-07-20T01:40:31;3.72;;;2.00;;
54037;SDS011;39954;48.844;9.726;2023-07-20T01:41:38;5.38;;;2.05;;
54037;SDS011;39954;48.844;9.726;2023-07-20T01:42:44;4.22;;;2.17;;
54037;SDS011;39954;48.844;9.726;2023-07-20T01:43:48;5.25;;;1.80;;
54037;SDS011;39954;48.844;9.726;2023-07-20T01:44:54;3.90;;;2.25;;
54037;SDS011;39954;48.844;9.726;2023-07-20T01:45:57;4.72;;;2.92;;
54037;SDS011;39954;48.844;9.726;2023-07-20T01:47:06;8.98;;;2.00;;
54037;SDS011;39954;48.844;9.726;2023-07-20T01:48:09;6.13;;;2.17;;
54037;SDS011;39954;48.844;9.726;2023-07-20T01:49:15;5.13;;;1.80;;
54037;SDS011;39954;48.844;9.726;2023-07-20T01:50:18;4.15;;;2.60;;
54037;SDS011;39954;48.844;9.726;2023-07-20T01:51:24;10.50;;;2.30;;
54037;SDS011;39954;48.844;9.726;2023-07-20T01:52:27;6.93;;;2.30;;
54037;SDS011;39954;48.844;9.726;2023-07-20T01:53:32;7.68;;;2.10;;
54037;SDS011;39954;48.844;9.726;2023-07-20T01:54:35;5.75;;;2.13;;
54037;SDS011;39954;48.844;9.726;2023-07-20T01:55:41;5.47;;;2.40;;
54037;SDS011;39954;48.844;9.726;2023-07-20T01:56:44;7.85;;;2.03;;
54037;SDS011;39954;48.844;9.726;2023-07-20T01:57:50;3.25;;;2.10;;
54037;SDS011;39954;48.844;9.726;2023-07-20T01:58:53;5.30;;;2.13;;
54037;SDS011;39954;48.844;9.726;2023-07-20T01:59:59;3.72;;;1.88;;
54037;SDS011;39954;48.844;9.726;2023-07-20T02:01:02;4.82;;;1.88;;
54037;SDS011;39954;48.844;9.726;2023-07-20T02:02:10;5.68;;;2.03;;
54037;SDS011;39954;48.844;9.726;2023-07-20T02:03:14;4.95;;;2.22;;
54037;SDS011;39954;48.844;9.726;2023-07-20T02:04:19;4.80;;;2.40;;
54037;SDS011;39954;48.844;9.726;2023-07-20T02:05:22;3.75;;;2.45;;
54037;SDS011;39954;48.844;9.726;2023-07-20T02:06:28;4.53;;;2.72;;
54037;SDS011;39954;48.844;9.726;2023-07-20T02:07:31;5.65;;;2.30;;
54037;SDS011;39954;48.844;9.726;2023-07-20T02:08:35;5.00;;;2.20;;
54037;SDS011;39954;48.844;9.726;2023-07-20T02:09:42;4.65;;;2.63;;
54037;SDS011;39954;48.844;9.726;2023-07-20T02:10:45;3.97;;;2.50;;
54037;SDS011;39954;48.844;9.726;2023-07-20T02:11:51;5.00;;;2.65;;
54037;SDS011;39954;48.844;9.726;2023-07-20T02:12:54;3.78;;;2.17;;
54037;SDS011;39954;48.844;9.726;2023-07-20T02:14:00;6.28;;;2.33;;
54037;SDS011;39954;48.844;9.726;2023-07-20T02:15:03;4.03;;;2.20;;
54037;SDS011;39954;48.844;9.726;2023-07-20T02:16:07;8.65;;;2.60;;
54037;SDS011;39954;48.844;9.726;2023-07-20T02:17:15;8.73;;;2.33;;
54037;SDS011;39954;48.844;9.726;2023-07-20T02:18:19;5.68;;;2.15;;
54037;SDS011;39954;48.844;9.726;2023-07-20T02:19:24;3.83;;;2.65;;
54037;SDS011;39954;48.844;9.726;2023-07-20T02:20:28;6.38;;;2.95;;
54037;SDS011;39954;48.844;9.726;2023-07-20T02:21:34;6.97;;;2.25;;
54037;SDS011;39954;48.844;9.726;2023-07-20T02:22:40;4.28;;;2.30;;
54037;SDS011;39954;48.844;9.726;2023-07-20T02:23:46;4.68;;;2.50;;
54037;SDS011;39954;48.844;9.726;2023-07-20T02:24:49;4.70;;;2.28;;
54037;SDS011;39954;48.844;9.726;2023-07-20T02:25:55;4.97;;;2.38;;
54037;SDS011;39954;48.844;9.726;2023-07-20T02:26:58;8.55;;;2.33;;
54037;SDS011;39954;48.844;9.726;2023-07-20T02:28:04;4.20;;;2.55;;
54037;SDS011;39954;48.844;9.726;2023-07-20T02:29:07;7.32;;;2.50;;
54037;SDS011;39954;48.844;9.726;2023-07-20T02:30:13;7.97;;;2.40;;
54037;SDS011;39954;48.844;9.726;2023-07-20T02:31:18;3.80;;;2.10;;
54037;SDS011;39954;48.844;9.726;2023-07-20T02:32:27;5.80;;;2.47;;
54037;SDS011;39954;48.844;9.726;2023-07-20T02:33:31;8.68;;;2.67;;
54037;SDS011;39954;48.844;9.726;2023-07-20T02:34:36;3.88;;;2.45;;
54037;SDS011;39954;48.844;9.726;2023-07-20T02:35:40;5.10;;;2.65;;
54037;SDS011;39954;48.844;9.726;2023-07-20T02:36:46;7.80;;;2.70;;
54037;SDS011;39954;48.844;9.726;2023-07-20T02:37:50;5.45;;;2.60;;
54037;SDS011;39954;48.844;9.726;2023-07-20T02:38:56;3.47;;;2.42;;
54037;SDS011;39954;48.844;9.726;2023-07-20T02:39:59;8.10;;;2.58;;
54037;SDS011;39954;48.844;9.726;2023-07-20T02:41:06;10.55;;;2.83;;
54037;SDS011;39954;48.844;9.726;2023-07-20T02:42:09;6.28;;;2.28;;
54037;SDS011;39954;48.844;9.726;2023-07-20T02:43:13;5.95;;;2.60;;
54037;SDS011;39954;48.844;9.726;2023-07-20T02:44:18;3.35;;;2.30;;
54037;SDS011;39954;48.844;9.726;2023-07-20T02:45:21;4.50;;;2.40;;
54037;SDS011;39954;48.844;9.726;2023-07-20T02:46:24;5.97;;;2.10;;
54037;SDS011;39954;48.844;9.726;2023-07-20T02:47:35;4.15;;;2.40;;
54037;SDS011;39954;48.844;9.726;2023-07-20T02:48:37;6.25;;;2.78;;
54037;SDS011;39954;48.844;9.726;2023-07-20T02:49:43;7.22;;;3.10;;
54037;SDS011;39954;48.844;9.726;2023-07-20T02:50:46;9.65;;;3.55;;
54037;SDS011;39954;48.844;9.726;2023-07-20T02:51:51;9.00;;;3.33;;
54037;SDS011;39954;48.844;9.726;2023-07-20T02:52:55;3.75;;;2.40;;
54037;SDS011;39954;48.844;9.726;2023-07-20T02:54:00;11.07;;;4.13;;
54037;SDS011;39954;48.844;9.726;2023-07-20T02:55:04;7.63;;;3.08;;
54037;SDS011;39954;48.844;9.726;2023-07-20T02:56:10;7.47;;;3.08;;
54037;SDS011;39954;48.844;9.726;2023-07-20T02:57:13;18.73;;;5.10;;
54037;SDS011;39954;48.844;9.726;2023-07-20T02:58:18;11.25;;;3.17;;
54037;SDS011;39954;48.844;9.726;2023-07-20T02:59:21;17.73;;;3.80;;
54037;SDS011;39954;48.844;9.726;2023-07-20T03:00:27;27.85;;;5.13;;
54037;SDS011;39954;48.844;9.726;2023-07-20T03:01:30;12.43;;;3.28;;
54037;SDS011;39954;48.844;9.726;2023-07-20T03:02:39;15.18;;;4.15;;
54037;SDS011;39954;48.844;9.726;2023-07-20T03:03:42;22.33;;;5.85;;
54037;SDS011;39954;48.844;9.726;2023-07-20T03:04:48;18.95;;;5.03;;
54037;SDS011;39954;48.844;9.726;2023-07-20T03:05:51;21.90;;;5.60;;
54037;SDS011;39954;48.844;9.726;2023-07-20T03:06:59;29.27;;;6.47;;
54037;SDS011;39954;48.844;9.726;2023-07-20T03:08:02;15.55;;;4.53;;
54037;SDS011;39954;48.844;9.726;2023-07-20T03:09:08;14.77;;;4.05;;
54037;SDS011;39954;48.844;9.726;2023-07-20T03:10:11;24.35;;;5.75;;
54037;SDS011;39954;48.844;9.726;2023-07-20T03:11:17;23.13;;;4.47;;
54037;SDS011;39954;48.844;9.726;2023-07-20T03:12:21;13.57;;;3.47;;
54037;SDS011;39954;48.844;9.726;2023-07-20T03:13:26;35.78;;;6.32;;
54037;SDS011;39954;48.844;9.726;2023-07-20T03:14:29;13.18;;;3.30;;
54037;SDS011;39954;48.844;9.726;2023-07-20T03:15:35;13.52;;;3.33;;
54037;SDS011;39954;48.844;9.726;2023-07-20T03:16:38;14.23;;;3.70;;
54037;SDS011;39954;48.844;9.726;2023-07-20T03:17:47;26.83;;;5.18;;
54037;SDS011;39954;48.844;9.726;2023-07-20T03:18:50;36.10;;;6.10;;
54037;SDS011;39954;48.844;9.726;2023-07-20T03:19:56;20.02;;;4.13;;
54037;SDS011;39954;48.844;9.726;2023-07-20T03:21:01;12.15;;;3.50;;
54037;SDS011;39954;48.844;9.726;2023-07-20T03:22:08;10.60;;;3.33;;
54037;SDS011;39954;48.844;9.726;2023-07-20T03:23:11;12.77;;;3.92;;
54037;SDS011;39954;48.844;9.726;2023-07-20T03:24:17;14.95;;;3.15;;
54037;SDS011;39954;48.844;9.726;2023-07-20T03:25:20;5.85;;;2.70;;
54037;SDS011;39954;48.844;9.726;2023-07-20T03:26:28;8.80;;;3.65;;
54037;SDS011;39954;48.844;9.726;2023-07-20T03:27:31;14.73;;;4.18;;
54037;SDS011;39954;48.844;9.726;2023-07-20T03:28:37;13.07;;;3.60;;
54037;SDS011;39954;48.844;9.726;2023-07-20T03:29:41;14.43;;;4.25;;
54037;SDS011;39954;48.844;9.726;2023-07-20T03:30:52;14.75;;;4.53;;
54037;SDS011;39954;48.844;9.726;2023-07-20T03:31:55;22.67;;;5.28;;
54037;SDS011;39954;48.844;9.726;2023-07-20T03:33:04;12.52;;;3.63;;
54037;SDS011;39954;48.844;9.726;2023-07-20T03:34:07;10.75;;;3.53;;
54037;SDS011;39954;48.844;9.726;2023-07-20T03:35:16;19.55;;;5.10;;
54037;SDS011;39954;48.844;9.726;2023-07-20T03:36:20;14.45;;;4.00;;
54037;SDS011;39954;48.844;9.726;2023-07-20T03:37:25;17.13;;;4.97;;
54037;SDS011;39954;48.844;9.726;2023-07-20T03:38:29;26.67;;;5.60;;
54037;SDS011;39954;48.844;9.726;2023-07-20T03:39:34;15.63;;;4.38;;
54037;SDS011;39954;48.844;9.726;2023-07-20T03:40:38;19.40;;;4.65;;
54037;SDS011;39954;48.844;9.726;2023-07-20T03:41:44;30.00;;;5.57;;
54037;SDS011;39954;48.844;9.726;2023-07-20T03:42:47;31.48;;;5.50;;
54037;SDS011;39954;48.844;9.726;2023-07-20T03:43:53;30.35;;;4.65;;
54037;SDS011;39954;48.844;9.726;2023-07-20T03:44:56;45.58;;;8.07;;
54037;SDS011;39954;48.844;9.726;2023-07-20T03:46:01;21.25;;;3.88;;
54037;SDS011;39954;48.844;9.726;2023-07-20T03:47:08;8.50;;;3.72;;
54037;SDS011;39954;48.844;9.726;2023-07-20T03:48:18;21.90;;;5.03;;
54037;SDS011;39954;48.844;9.726;2023-07-20T03:49:22;18.45;;;3.67;;
54037;SDS011;39954;48.844;9.726;2023-07-20T03:50:27;18.70;;;4.50;;
54037;SDS011;39954;48.844;9.726;2023-07-20T03:51:30;19.08;;;3.35;;
54037;SDS011;39954;48.844;9.726;2023-07-20T03:52:36;11.45;;;3.38;;
54037;SDS011;39954;48.844;9.726;2023-07-20T03:53:39;16.92;;;3.70;;
54037;SDS011;39954;48.844;9.726;2023-07-20T03:54:44;28.05;;;4.80;;
54037;SDS011;39954;48.844;9.726;2023-07-20T03:55:47;16.45;;;4.45;;
54037;SDS011;39954;48.844;9.726;2023-07-20T03:56:54;26.08;;;4.47;;
54037;SDS011;39954;48.844;9.726;2023-07-20T03:57:57;35.60;;;5.18;;
54037;SDS011;39954;48.844;9.726;2023-07-20T03:59:04;18.27;;;3.53;;
54037;SDS011;39954;48.844;9.726;2023-07-20T04:00:08;47.05;;;5.60;;
54037;SDS011;39954;48.844;9.726;2023-07-20T04:01:16;13.68;;;3.75;;
54037;SDS011;39954;48.844;9.726;2023-07-20T04:02:19;15.57;;;3.45;;
54037;SDS011;39954;48.844;9.726;2023-07-20T04:03:28;25.20;;;4.63;;
54037;SDS011;39954;48.844;9.726;2023-07-20T04:04:31;23.35;;;4.32;;
54037;SDS011;39954;48.844;9.726;2023-07-20T04:05:37;20.35;;;4.20;;
54037;SDS011;39954;48.844;9.726;2023-07-20T04:06:40;33.45;;;5.22;;
54037;SDS011;39954;48.844;9.726;2023-07-20T04:07:46;36.08;;;5.32;;
54037;SDS011;39954;48.844;9.726;2023-07-20T04:08:49;29.17;;;4.90;;
54037;SDS011;39954;48.844;9.726;2023-07-20T04:09:54;64.10;;;8.18;;
54037;SDS011;39954;48.844;9.726;2023-07-20T04:10:57;40.28;;;6.20;;
54037;SDS011;39954;48.844;9.726;2023-07-20T04:12:00;57.25;;;6.68;;
54037;SDS011;39954;48.844;9.726;2023-07-20T04:13:06;37.63;;;5.63;;
54037;SDS011;39954;48.844;9.726;2023-07-20T04:14:09;28.88;;;4.70;;
54037;SDS011;39954;48.844;9.726;2023-07-20T04:15:14;47.22;;;6.03;;
54037;SDS011;39954;48.844;9.726;2023-07-20T04:16:17;40.97;;;5.47;;
54037;SDS011;39954;48.844;9.726;2023-07-20T04:17:23;45.30;;;6.13;;
54037;SDS011;39954;48.844;9.726;2023-07-20T04:18:29;47.97;;;6.05;;
54037;SDS011;39954;48.844;9.726;2023-07-20T04:19:38;37.70;;;5.32;;
54037;SDS011;39954;48.844;9.726;2023-07-20T04:20:41;32.88;;;4.97;;
54037;SDS011;39954;48.844;9.726;2023-07-20T04:21:49;41.75;;;5.35;;
54037;SDS011;39954;48.844;9.726;2023-07-20T04:22:52;50.00;;;6.40;;
54037;SDS011;39954;48.844;9.726;2023-07-20T04:23:59;42.72;;;5.43;;
54037;SDS011;39954;48.844;9.726;2023-07-20T04:25:02;28.17;;;4.35;;
54037;SDS011;39954;48.844;9.726;2023-07-20T04:26:08;32.85;;;4.90;;
54037;SDS011;39954;48.844;9.726;2023-07-20T04:27:13;28.13;;;4.13;;
54037;SDS011;39954;48.844;9.726;2023-07-20T04:28:23;26.90;;;4.20;;
54037;SDS011;39954;48.844;9.726;2023-07-20T04:29:26;30.35;;;4.45;;
54037;SDS011;39954;48.844;9.726;2023-07-20T04:30:33;39.03;;;5.68;;
54037;SDS011;39954;48.844;9.726;2023-07-20T04:31:38;22.00;;;3.72;;
54037;SDS011;39954;48.844;9.726;2023-07-20T04:32:44;29.38;;;4.53;;
54037;SDS011;39954;48.844;9.726;2023-07-20T04:33:51;33.90;;;5.15;;
54037;SDS011;39954;48.844;9.726;2023-07-20T04:34:56;36.13;;;5.18;;
54037;SDS011;39954;48.844;9.726;2023-07-20T04:36:00;33.42;;;4.75;;
54037;SDS011;39954;48.844;9.726;2023-07-20T04:37:06;16.70;;;3.55;;
54037;SDS011;39954;48.844;9.726;2023-07-20T04:38:09;20.15;;;3.70;;
54037;SDS011;39954;48.844;9.726;2023-07-20T04:39:17;26.98;;;4.25;;
54037;SDS011;39954;48.844;9.726;2023-07-20T04:40:32;36.38;;;4.78;;
54037;SDS011;39954;48.844;9.726;2023-07-20T04:41:38;61.72;;;7.30;;
54037;SDS011;39954;48.844;9.726;2023-07-20T04:42:40;40.63;;;5.47;;
54037;SDS011;39954;48.844;9.726;2023-07-20T04:43:46;30.88;;;4.60;;
54037;SDS011;39954;48.844;9.726;2023-07-20T04:44:55;44.22;;;5.60;;
54037;SDS011;39954;48.844;9.726;2023-07-20T04:46:00;32.70;;;4.72;;
54037;SDS011;39954;48.844;9.726;2023-07-20T04:47:05;50.80;;;5.95;;
54037;SDS011;39954;48.844;9.726;2023-07-20T04:48:13;25.08;;;3.90;;
54037;SDS011;39954;48.844;9.726;2023-07-20T04:49:20;39.22;;;5.78;;
54037;SDS011;39954;48.844;9.726;2023-07-20T04:50:26;30.75;;;4.38;;
54037;SDS011;39954;48.844;9.726;2023-07-20T04:51:29;32.22;;;4.35;;
54037;SDS011;39954;48.844;9.726;2023-07-20T04:52:34;36.33;;;4.72;;
54037;SDS011;39954;48.844;9.726;2023-07-20T04:53:43;31.60;;;4.28;;
54037;SDS011;39954;48.844;9.726;2023-07-20T04:54:49;40.13;;;5.40;;
54037;SDS011;39954;48.844;9.726;2023-07-20T04:55:52;53.70;;;6.13;;
54037;SDS011;39954;48.844;9.726;2023-07-20T04:56:58;46.58;;;5.57;;
54037;SDS011;39954;48.844;9.726;2023-07-20T04:58:03;32.25;;;4.45;;
54037;SDS011;39954;48.844;9.726;2023-07-20T04:59:09;31.95;;;4.15;;
54037;SDS011;39954;48.844;9.726;2023-07-20T05:00:12;33.10;;;4.80;;
54037;SDS011;39954;48.844;9.726;2023-07-20T05:01:21;18.42;;;3.72;;
54037;SDS011;39954;48.844;9.726;2023-07-20T05:02:28;41.65;;;5.60;;
54037;SDS011;39954;48.844;9.726;2023-07-20T05:03:34;31.08;;;4.55;;
54037;SDS011;39954;48.844;9.726;2023-07-20T05:04:40;27.67;;;4.40;;
54037;SDS011;39954;48.844;9.726;2023-07-20T05:05:46;34.42;;;5.25;;
54037;SDS011;39954;48.844;9.726;2023-07-20T05:06:53;37.58;;;4.97;;
54037;SDS011;39954;48.844;9.726;2023-07-20T05:07:59;32.45;;;4.72;;
54037;SDS011;39954;48.844;9.726;2023-07-20T05:09:02;36.25;;;4.93;;
54037;SDS011;39954;48.844;9.726;2023-07-20T05:10:08;17.95;;;3.47;;
54037;SDS011;39954;48.844;9.726;2023-07-20T05:11:12;16.08;;;3.33;;
54037;SDS011;39954;48.844;9.726;2023-07-20T05:12:15;36.38;;;5.05;;
54037;SDS011;39954;48.844;9.726;2023-07-20T05:13:21;18.55;;;3.38;;
54037;SDS011;39954;48.844;9.726;2023-07-20T05:14:24;17.60;;;3.38;;
54037;SDS011;39954;48.844;9.726;2023-07-20T05:15:32;19.08;;;3.50;;
54037;SDS011;39954;48.844;9.726;2023-07-20T05:16:36;24.67;;;5.28;;
54037;SDS011;39954;48.844;9.726;2023-07-20T05:17:41;39.63;;;6.93;;
54037;SDS011;39954;48.844;9.726;2023-07-20T05:18:45;40.17;;;6.30;;
54037;SDS011;39954;48.844;9.726;2023-07-20T05:19:53;40.05;;;7.07;;
54037;SDS011;39954;48.844;9.726;2023-07-20T05:20:56;69.80;;;8.23;;
54037;SDS011;39954;48.844;9.726;2023-07-20T05:22:02;55.38;;;7.47;;
54037;SDS011;39954;48.844;9.726;2023-07-20T05:23:06;42.83;;;5.60;;
54037;SDS011;39954;48.844;9.726;2023-07-20T05:24:12;23.83;;;3.88;;
54037;SDS011;39954;48.844;9.726;2023-07-20T05:25:15;25.85;;;4.32;;
54037;SDS011;39954;48.844;9.726;2023-07-20T05:26:24;40.67;;;13.75;;
54037;SDS011;39954;48.844;9.726;2023-07-20T05:27:27;44.55;;;10.50;;
54037;SDS011;39954;48.844;9.726;2023-07-20T05:28:33;24.85;;;4.35;;
54037;SDS011;39954;48.844;9.726;2023-07-20T05:29:36;44.97;;;6.38;;
54037;SDS011;39954;48.844;9.726;2023-07-20T05:30:42;37.42;;;4.63;;
54037;SDS011;39954;48.844;9.726;2023-07-20T05:31:44;29.05;;;4.25;;
54037;SDS011;39954;48.844;9.726;2023-07-20T05:32:50;37.55;;;4.82;;
54037;SDS011;39954;48.844;9.726;2023-07-20T05:33:56;36.92;;;4.80;;
54037;SDS011;39954;48.844;9.726;2023-07-20T05:35:04;52.50;;;6.35;;
54037;SDS011;39954;48.844;9.726;2023-07-20T05:36:08;64.07;;;7.13;;
54037;SDS011;39954;48.844;9.726;2023-07-20T05:37:14;44.22;;;5.50;;
54037;SDS011;39954;48.844;9.726;2023-07-20T05:38:17;33.38;;;4.57;;
54037;SDS011;39954;48.844;9.726;2023-07-20T05:39:23;46.40;;;6.05;;
54037;SDS011;39954;48.844;9.726;2023-07-20T05:40:26;62.67;;;6.95;;
54037;SDS011;39954;48.844;9.726;2023-07-20T05:41:32;37.55;;;5.10;;
54037;SDS011;39954;48.844;9.726;2023-07-20T05:42:35;39.92;;;5.13;;
54037;SDS011;39954;48.844;9.726;2023-07-20T05:43:41;45.40;;;5.57;;
54037;SDS011;39954;48.844;9.726;2023-07-20T05:44:44;35.47;;;4.60;;
54037;SDS011;39954;48.844;9.726;2023-07-20T05:45:50;30.90;;;4.50;;
54037;SDS011;39954;48.844;9.726;2023-07-20T05:46:53;44.97;;;5.72;;
54037;SDS011;39954;48.844;9.726;2023-07-20T05:47:59;24.92;;;4.22;;
54037;SDS011;39954;48.844;9.726;2023-07-20T05:49:02;48.15;;;5.88;;
54037;SDS011;39954;48.844;9.726;2023-07-20T05:50:10;41.47;;;5.35;;
54037;SDS011;39954;48.844;9.726;2023-07-20T05:51:13;17.92;;;3.35;;
54037;SDS011;39954;48.844;9.726;2023-07-20T05:52:19;26.75;;;4.30;;
54037;SDS011;39954;48.844;9.726;2023-07-20T05:53:22;19.58;;;3.53;;
54037;SDS011;39954;48.844;9.726;2023-07-20T05:54:28;25.17;;;3.75;;
54037;SDS011;39954;48.844;9.726;2023-07-20T05:55:31;20.38;;;3.45;;
54037;SDS011;39954;48.844;9.726;2023-07-20T05:56:37;44.10;;;5.70;;
54037;SDS011;39954;48.844;9.726;2023-07-20T05:57:40;29.35;;;4.50;;
54037;SDS011;39954;48.844;9.726;2023-07-20T05:58:46;18.17;;;3.38;;
54037;SDS011;39954;48.844;9.726;2023-07-20T05:59:49;35.83;;;5.22;;
54037;SDS011;39954;48.844;9.726;2023-07-20T06:00:55;27.10;;;4.30;;
54037;SDS011;39954;48.844;9.726;2023-07-20T06:01:58;29.05;;;4.15;;
54037;SDS011;39954;48.844;9.726;2023-07-20T06:03:04;33.53;;;4.68;;
54037;SDS011;39954;48.844;9.726;2023-07-20T06:04:07;35.70;;;5.30;;
54037;SDS011;39954;48.844;9.726;2023-07-20T06:05:15;23.23;;;3.60;;
54037;SDS011;39954;48.844;9.726;2023-07-20T06:06:18;26.95;;;4.38;;
54037;SDS011;39954;48.844;9.726;2023-07-20T06:07:25;27.63;;;4.43;;
54037;SDS011;39954;48.844;9.726;2023-07-20T06:08:28;29.35;;;4.22;;
54037;SDS011;39954;48.844;9.726;2023-07-20T06:09:33;28.58;;;4.70;;
54037;SDS011;39954;48.844;9.726;2023-07-20T06:10:37;30.83;;;4.68;;
54037;SDS011;39954;48.844;9.726;2023-07-20T06:11:46;24.90;;;3.97;;
54037;SDS011;39954;48.844;9.726;2023-07-20T06:12:49;38.40;;;4.68;;
54037;SDS011;39954;48.844;9.726;2023-07-20T06:13:58;51.25;;;6.60;;
54037;SDS011;39954;48.844;9.726;2023-07-20T06:15:02;47.75;;;6.13;;
54037;SDS011;39954;48.844;9.726;2023-07-20T06:16:08;56.13;;;6.90;;
54037;SDS011;39954;48.844;9.726;2023-07-20T06:17:11;36.63;;;5.20;;
54037;SDS011;39954;48.844;9.726;2023-07-20T06:18:17;50.72;;;6.43;;
54037;SDS011;39954;48.844;9.726;2023-07-20T06:19:20;37.13;;;4.85;;
54037;SDS011;39954;48.844;9.726;2023-07-20T06:20:29;26.33;;;4.32;;
54037;SDS011;39954;48.844;9.726;2023-07-20T06:21:44;42.95;;;5.45;;
54037;SDS011;39954;48.844;9.726;2023-07-20T06:22:58;31.88;;;4.00;;
54037;SDS011;39954;48.844;9.726;2023-07-20T06:24:01;41.15;;;5.60;;
54037;SDS011;39954;48.844;9.726;2023-07-20T06:25:07;28.55;;;4.50;;
54037;SDS011;39954;48.844;9.726;2023-07-20T06:26:11;29.17;;;4.65;;
54037;SDS011;39954;48.844;9.726;2023-07-20T06:27:20;18.13;;;2.92;;
54037;SDS011;39954;48.844;9.726;2023-07-20T06:28:24;17.45;;;3.63;;
54037;SDS011;39954;48.844;9.726;2023-07-20T06:29:29;24.17;;;4.22;;
54037;SDS011;39954;48.844;9.726;2023-07-20T06:30:33;27.60;;;4.57;;
54037;SDS011;39954;48.844;9.726;2023-07-20T06:31:48;27.75;;;4.10;;
54037;SDS011;39954;48.844;9.726;2023-07-20T06:32:52;31.80;;;4.80;;
54037;SDS011;39954;48.844;9.726;2023-07-20T06:33:58;25.48;;;4.53;;
54037;SDS011;39954;48.844;9.726;2023-07-20T06:35:01;32.95;;;5.22;;